Weather at Nivenskoye Air Base [CLOSED]

Public forecast

Using degrees Celsius for public forecast. Weather courtesy of forecast.io.

Closest aviation weather report (METAR) to Nivenskoye Air Base

Closest report is Khrabrovo Airport, 19.7 nm (36.5 km) N. Retrieved 2021/06/20 10:00 UTC (6 minutes ago):

UMKK 201000Z 16005MPS 130V220 CAVOK 30/16 Q1014 R24/95D NOSIG RMK QFE760/1013

Closest aviation forecast (TAF) to Nivenskoye Air Base

Closest forecast is Khrabrovo Airport, 19.7 nm (36.5 km) N. Retrieved 2021/06/20 09:21 UTC (45 minutes ago):

TAF UMKK 200755Z 2009/2109 18006MPS CAVOK TX32/2011Z TN20/2102Z BECMG 2016/2018 13003MPS